createdAt,value
2022-08-28T00:07:47.757Z,16.4
2022-08-28T00:17:46.396Z,16.3
2022-08-28T00:27:48.828Z,16.1
2022-08-28T00:37:51.156Z,15.8
2022-08-28T00:57:56.291Z,15.6
2022-08-28T01:07:58.497Z,15.4
2022-08-28T01:18:04.744Z,15.4
2022-08-28T01:28:03.616Z,15.3
2022-08-28T01:38:05.790Z,15.3
2022-08-28T01:48:08.069Z,15.2
2022-08-28T01:58:10.721Z,15.2
2022-08-28T02:08:13.062Z,15
2022-08-28T02:18:15.298Z,14.9
2022-08-28T02:28:17.725Z,14.8
2022-08-28T02:38:20.023Z,14.7
2022-08-28T02:48:21.842Z,14.6
2022-08-28T02:58:23.526Z,14.5
2022-08-28T03:08:27.167Z,14.2
2022-08-28T03:18:27.446Z,14.1
2022-08-28T03:28:29.206Z,14.1
2022-08-28T03:38:31.410Z,14.1
2022-08-28T03:48:33.132Z,13.9
2022-08-28T03:58:34.914Z,13.9
2022-08-28T04:08:36.996Z,13.7
2022-08-28T04:18:38.668Z,13.5
2022-08-28T04:28:40.909Z,13.4
2022-08-28T04:38:43.853Z,13.3
2022-08-28T04:48:44.791Z,13.2
2022-08-28T04:58:47.291Z,13.1
2022-08-28T05:08:49.135Z,13.1
2022-08-28T05:18:51.743Z,12.9
2022-08-28T05:28:53.786Z,13
2022-08-28T05:38:55.941Z,13
2022-08-28T05:48:58.098Z,13.1
2022-08-28T05:59:00.023Z,13.3
2022-08-28T06:09:02.373Z,13.5
2022-08-28T06:19:04.109Z,13.8
2022-08-28T06:29:06.334Z,14.1
2022-08-28T06:39:08.315Z,14.4
2022-08-28T06:49:10.074Z,14.7
2022-08-28T06:59:12.047Z,15.3
2022-08-28T07:09:13.989Z,15.8
2022-08-28T07:19:16.303Z,16.5
2022-08-28T07:29:17.950Z,17
2022-08-28T07:39:20.119Z,16.9
2022-08-28T07:49:22.723Z,16.8
2022-08-28T07:59:24.852Z,17
2022-08-28T08:09:26.740Z,17.2
2022-08-28T08:19:28.939Z,17.6
2022-08-28T08:29:30.985Z,17.5
2022-08-28T08:39:33.625Z,17.8
2022-08-28T08:49:35.564Z,18.5
2022-08-28T08:59:37.651Z,18.1
2022-08-28T09:09:39.886Z,18.5
2022-08-28T09:19:42.155Z,19.7
2022-08-28T09:29:44.563Z,19.3
2022-08-28T09:39:48.831Z,20.2
2022-08-28T09:59:50.463Z,20.4
2022-08-28T10:09:53.045Z,20.7
2022-08-28T10:19:54.831Z,20.1
2022-08-28T10:29:57.999Z,20.9
2022-08-28T10:39:58.994Z,20.2
2022-08-28T10:50:01.419Z,21.5
2022-08-28T11:00:03.466Z,21.1
2022-08-28T11:10:05.122Z,20.7
2022-08-28T11:20:07.345Z,21.6
2022-08-28T11:30:09.281Z,21
2022-08-28T11:40:11.169Z,21.7
2022-08-28T11:50:13.560Z,22.1
2022-08-28T12:00:15.810Z,22
2022-08-28T12:10:17.671Z,21.8
2022-08-28T12:20:19.357Z,22.1
2022-08-28T12:30:21.091Z,22.5
2022-08-28T12:40:22.926Z,22.3
2022-08-28T12:50:25.265Z,22.8
2022-08-28T12:50:47.195Z,22.7
2022-08-28T13:00:34.407Z,22.7
2022-08-28T13:10:36.266Z,22.8
2022-08-28T13:20:37.949Z,22.9
2022-08-28T13:30:40.334Z,23.3
2022-08-28T13:40:56.724Z,22.7
2022-08-28T13:50:45.687Z,22.4
2022-08-28T14:00:47.557Z,22.5
2022-08-28T14:10:50.014Z,22.9
2022-08-28T14:20:52.387Z,23.2
2022-08-28T14:30:54.718Z,22.1
2022-08-28T14:40:57.139Z,22.9
2022-08-28T14:50:59.729Z,22.9
2022-08-28T15:01:01.848Z,22.9
2022-08-28T15:11:03.985Z,23.7
2022-08-28T15:21:06.035Z,23
2022-08-28T15:31:08.027Z,23.1
2022-08-28T15:41:10.575Z,22.9
2022-08-28T15:51:12.240Z,22.7
2022-08-28T16:01:14.907Z,22.3
2022-08-28T16:11:17.335Z,22.2
2022-08-28T16:21:19.348Z,22.2
2022-08-28T16:41:23.932Z,21.8
2022-08-28T16:51:25.846Z,21.6
2022-08-28T17:41:35.946Z,21
2022-08-28T18:11:42.439Z,20.2
2022-08-28T18:21:44.984Z,19.9
2022-08-28T18:31:46.899Z,19.6
2022-08-28T18:41:49.190Z,19.3
2022-08-28T18:51:50.987Z,19
2022-08-28T19:01:53.278Z,18.8
2022-08-28T19:11:55.287Z,18.6
2022-08-28T19:21:57.167Z,18.3
2022-08-28T19:31:59.649Z,18.1
2022-08-28T19:42:01.699Z,17.9
2022-08-28T19:52:03.412Z,17.6
2022-08-28T20:02:05.753Z,17.3
2022-08-28T20:12:08.299Z,17.2
2022-08-28T20:42:14.396Z,16.6
2022-08-28T20:52:16.629Z,16.5
2022-08-28T21:02:19.005Z,16.3
2022-08-28T21:12:21.346Z,16.2
2022-08-28T21:32:26.027Z,16
2022-08-28T21:42:28.492Z,15.7
2022-08-28T21:52:30.634Z,15.5
2022-08-28T22:02:33.005Z,15
2022-08-28T22:22:37.577Z,14.4
2022-08-28T23:32:54.789Z,13.1
2022-08-28T23:42:57.109Z,13.3
